createdAt,value
2018-02-12T00:00:40.206Z,38.24
2018-02-12T00:01:40.180Z,38.24
2018-02-12T00:02:40.157Z,38.16
2018-02-12T00:03:40.131Z,38.24
2018-02-12T00:04:40.103Z,37.95
2018-02-12T00:05:40.079Z,38.14
2018-02-12T00:06:40.056Z,38.14
2018-02-12T00:07:40.029Z,38.24
2018-02-12T00:08:40.004Z,38.14
2018-02-12T00:09:39.977Z,38.24
2018-02-12T00:10:39.952Z,38.14
2018-02-12T00:11:39.924Z,38.14
2018-02-12T00:12:39.901Z,37.95
2018-02-12T00:13:39.874Z,37.95
2018-02-12T00:14:39.849Z,37.68
2018-02-12T00:15:39.823Z,37.85
2018-02-12T00:16:39.798Z,37.85
2018-02-12T00:17:39.772Z,37.76
2018-02-12T00:18:39.747Z,37.66
2018-02-12T00:19:39.719Z,37.85
2018-02-12T00:20:39.695Z,37.85
2018-02-12T00:21:39.669Z,37.76
2018-02-12T00:22:39.643Z,37.66
2018-02-12T00:23:39.616Z,37.66
2018-02-12T00:24:39.591Z,37.85
2018-02-12T00:25:39.566Z,37.85
2018-02-12T00:26:39.539Z,37.95
2018-02-12T00:27:39.544Z,37.85
2018-02-12T00:28:39.489Z,37.76
2018-02-12T00:29:39.462Z,37.85
2018-02-12T00:30:39.435Z,37.66
2018-02-12T00:31:39.410Z,37.85
2018-02-12T00:32:39.388Z,37.66
2018-02-12T00:33:39.359Z,37.37
2018-02-12T00:34:39.333Z,37.85
2018-02-12T00:35:39.307Z,37.85
2018-02-12T00:36:39.281Z,37.85
2018-02-12T00:37:39.254Z,37.95
2018-02-12T00:38:39.228Z,37.85
2018-02-12T00:39:39.203Z,37.95
2018-02-12T00:40:39.176Z,37.85
2018-02-12T00:41:39.151Z,38.04
2018-02-12T00:42:39.125Z,38.14
2018-02-12T00:43:39.098Z,38.04
2018-02-12T00:44:39.073Z,38.04
2018-02-12T00:45:39.047Z,38.14
2018-02-12T00:46:39.022Z,38.04
2018-02-12T00:47:38.995Z,38.04
2018-02-12T00:48:38.968Z,38.14
2018-02-12T00:49:38.943Z,38.14
2018-02-12T00:50:38.918Z,37.95
2018-02-12T00:51:38.892Z,37.76
2018-02-12T00:52:38.864Z,37.85
2018-02-12T00:53:38.839Z,37.95
2018-02-12T00:54:38.813Z,37.95
2018-02-12T00:55:38.786Z,38.14
2018-02-12T00:56:38.759Z,38.14
2018-02-12T00:57:38.734Z,38.04
2018-02-12T00:58:38.709Z,37.95
2018-02-12T00:59:38.685Z,38.04
2018-02-12T01:00:38.657Z,38.14
2018-02-12T01:01:38.630Z,38.22
2018-02-12T01:02:38.604Z,38.24
2018-02-12T01:03:38.577Z,38.22
2018-02-12T01:04:38.552Z,38.04
2018-02-12T01:05:38.526Z,38.04
2018-02-12T01:06:38.500Z,37.76
2018-02-12T01:07:38.473Z,37.93
2018-02-12T01:08:38.448Z,37.74
2018-02-12T01:09:38.422Z,37.74
2018-02-12T01:10:38.396Z,37.93
2018-02-12T01:11:38.370Z,37.93
2018-02-12T01:12:38.345Z,37.85
2018-02-12T01:13:38.319Z,37.83
2018-02-12T01:14:38.292Z,37.83
2018-02-12T01:15:38.266Z,37.93
2018-02-12T01:16:38.241Z,37.74
2018-02-12T01:17:38.215Z,37.35
2018-02-12T01:18:38.189Z,37.45
2018-02-12T01:19:38.161Z,37.37
2018-02-12T01:20:38.136Z,37.37
2018-02-12T01:21:38.109Z,37.35
2018-02-12T01:22:38.084Z,37.27
2018-02-12T01:23:38.057Z,37.08
2018-02-12T01:24:38.032Z,36.99
2018-02-12T01:25:38.006Z,37.08
2018-02-12T01:26:37.979Z,37.37
2018-02-12T01:27:37.952Z,37.08
2018-02-12T01:28:37.928Z,37.18
2018-02-12T01:29:37.902Z,36.99
2018-02-12T01:30:37.880Z,36.99
2018-02-12T01:31:37.847Z,36.99
2018-02-12T01:32:37.822Z,36.99
2018-02-12T01:33:37.796Z,36.99
2018-02-12T01:34:37.771Z,36.99
2018-02-12T01:35:37.744Z,36.89
2018-02-12T01:36:37.717Z,36.97
2018-02-12T01:37:37.691Z,36.99
2018-02-12T01:38:37.664Z,37.08
2018-02-12T01:39:37.638Z,36.99
2018-02-12T01:40:37.612Z,36.89
2018-02-12T01:41:37.586Z,36.99
2018-02-12T01:42:37.559Z,37.08
2018-02-12T01:43:37.533Z,36.89
2018-02-12T01:44:37.506Z,36.89
2018-02-12T01:45:37.480Z,37.18
2018-02-12T01:46:37.455Z,36.99
2018-02-12T01:47:37.428Z,36.99
2018-02-12T01:48:37.402Z,37.06
2018-02-12T01:49:37.376Z,37.08
2018-02-12T01:50:37.350Z,36.89
2018-02-12T01:51:37.322Z,37.08
2018-02-12T01:52:37.303Z,37.08
2018-02-12T01:53:37.273Z,36.97
2018-02-12T01:54:37.245Z,36.97
2018-02-12T01:55:37.219Z,36.87
2018-02-12T01:56:37.193Z,36.87
2018-02-12T01:57:37.166Z,37.06
2018-02-12T01:58:37.141Z,36.99
2018-02-12T01:59:37.113Z,36.89
2018-02-12T02:00:37.088Z,37.08
2018-02-12T02:01:37.063Z,37.06
2018-02-12T02:02:37.037Z,36.97
2018-02-12T02:03:37.009Z,37.06
2018-02-12T02:04:36.984Z,36.87
2018-02-12T02:05:36.957Z,37.06
2018-02-12T02:06:36.931Z,37.06
2018-02-12T02:07:36.906Z,36.97
2018-02-12T02:08:36.880Z,37.06
2018-02-12T02:09:36.855Z,36.97
2018-02-12T02:10:36.828Z,37.16
2018-02-12T02:11:36.799Z,36.97
2018-02-12T02:12:36.775Z,37.06
2018-02-12T02:13:36.750Z,37.06
2018-02-12T02:14:36.724Z,37.06
2018-02-12T02:15:36.697Z,37.06
2018-02-12T02:16:36.672Z,37.16
2018-02-12T02:17:36.645Z,37.06
2018-02-12T02:18:36.620Z,36.97
2018-02-12T02:19:36.593Z,37.16
2018-02-12T02:20:36.567Z,36.97
2018-02-12T02:21:36.542Z,37.16
2018-02-12T02:22:36.516Z,36.97
2018-02-12T02:23:36.489Z,36.97
2018-02-12T02:24:36.464Z,36.97
2018-02-12T02:25:36.441Z,36.97
2018-02-12T02:26:36.411Z,36.97
2018-02-12T02:27:36.385Z,36.97
2018-02-12T02:28:36.362Z,36.87
2018-02-12T02:29:36.333Z,36.97
2018-02-12T02:30:36.308Z,37.06
2018-02-12T02:31:36.281Z,37.06
2018-02-12T02:32:36.253Z,36.97
2018-02-12T02:33:36.229Z,37.26
2018-02-12T02:34:36.202Z,37.06
2018-02-12T02:35:36.174Z,36.87
2018-02-12T02:36:36.150Z,37.06
2018-02-12T02:37:36.123Z,37.06
2018-02-12T02:38:36.098Z,37.06
2018-02-12T02:39:36.071Z,37.06
2018-02-12T02:40:36.043Z,37.06
2018-02-12T02:41:36.018Z,36.97
2018-02-12T02:42:35.992Z,37.16
2018-02-12T02:43:35.964Z,36.97
2018-02-12T02:44:35.938Z,37.16
2018-02-12T02:45:35.913Z,37.06
2018-02-12T02:46:35.887Z,37.16
2018-02-12T02:47:35.858Z,37.16
2018-02-12T02:48:35.833Z,36.97
2018-02-12T02:49:35.808Z,37.06
2018-02-12T02:50:35.781Z,36.97
2018-02-12T02:51:35.754Z,37.06
2018-02-12T02:52:35.729Z,37.16
2018-02-12T02:53:35.705Z,37.16
2018-02-12T02:54:35.677Z,37.06
2018-02-12T02:55:35.650Z,36.97
2018-02-12T02:56:35.623Z,37.16
2018-02-12T02:57:35.598Z,36.97
2018-02-12T02:58:35.572Z,36.97
2018-02-12T02:59:35.544Z,36.97
2018-02-12T03:00:35.519Z,37.06
2018-02-12T03:01:35.492Z,37.26
2018-02-12T03:02:35.466Z,37.26
2018-02-12T03:03:35.439Z,37.26
2018-02-12T03:04:35.412Z,37.16
2018-02-12T03:05:35.386Z,37.16
2018-02-12T03:06:35.361Z,36.97
2018-02-12T03:07:35.334Z,37.35
2018-02-12T03:08:35.307Z,37.06
2018-02-12T03:09:35.282Z,37.06
2018-02-12T03:10:35.256Z,37.16
2018-02-12T03:11:35.228Z,37.16
2018-02-12T03:12:35.202Z,37.06
2018-02-12T03:13:35.176Z,37.06
2018-02-12T03:14:35.152Z,37.26
2018-02-12T03:15:35.127Z,37.24
2018-02-12T03:16:35.098Z,37.35
2018-02-12T03:17:35.072Z,37.06
2018-02-12T03:18:35.046Z,37.16
2018-02-12T03:19:35.018Z,37.06
2018-02-12T03:20:34.992Z,36.97
2018-02-12T03:21:34.972Z,37.16
2018-02-12T03:22:34.941Z,36.97
2018-02-12T03:23:34.912Z,36.97
2018-02-12T03:24:34.891Z,36.87
2018-02-12T03:25:34.860Z,36.97
2018-02-12T03:26:34.834Z,36.97
2018-02-12T03:27:34.806Z,36.97
2018-02-12T03:28:34.781Z,37.06
2018-02-12T03:29:34.755Z,36.77
2018-02-12T03:30:34.731Z,36.97
2018-02-12T03:31:34.701Z,36.97
2018-02-12T03:32:34.674Z,37.06
2018-02-12T03:33:34.647Z,37.06
2018-02-12T03:34:34.621Z,36.87
2018-02-12T03:35:34.597Z,36.97
2018-02-12T03:36:34.570Z,36.97
2018-02-12T03:37:34.542Z,36.87
2018-02-12T03:38:34.515Z,36.87
2018-02-12T03:39:34.490Z,36.77
2018-02-12T03:40:34.464Z,36.87
2018-02-12T03:41:34.436Z,36.97
2018-02-12T03:42:34.409Z,36.97
2018-02-12T03:43:34.384Z,36.77
2018-02-12T03:44:34.357Z,36.77
2018-02-12T03:45:34.332Z,36.87
2018-02-12T03:46:34.306Z,36.97
2018-02-12T03:47:34.279Z,36.29
2018-02-12T03:48:34.253Z,36.58
2018-02-12T03:49:34.226Z,36.87
2018-02-12T03:50:34.199Z,36.77
2018-02-12T03:51:34.174Z,36.68
2018-02-12T03:52:34.147Z,37.54
2018-02-12T03:53:34.121Z,36.87
2018-02-12T03:54:34.096Z,36.87
2018-02-12T03:55:34.068Z,36.97
2018-02-12T03:56:34.042Z,36.97
2018-02-12T03:57:34.015Z,37.06
2018-02-12T03:58:33.990Z,36.11
2018-02-12T03:59:33.962Z,36.99
2018-02-12T04:00:33.936Z,36.68
2018-02-12T04:01:33.911Z,37.06
2018-02-12T04:02:33.884Z,36.79
2018-02-12T04:03:33.856Z,36.79
2018-02-12T04:04:33.829Z,36.51
2018-02-12T04:05:33.803Z,36.69
2018-02-12T04:06:33.776Z,36.31
2018-02-12T04:07:33.748Z,36.69
2018-02-12T04:08:33.722Z,36.41
2018-02-12T04:09:33.695Z,36.69
2018-02-12T04:10:33.670Z,36.21
2018-02-12T04:11:33.642Z,36.21
2018-02-12T04:12:33.614Z,35.85
2018-02-12T04:13:33.588Z,36.02
2018-02-12T04:14:33.560Z,36.02
2018-02-12T04:15:33.533Z,35.94
2018-02-12T04:16:33.506Z,36.04
2018-02-12T04:17:33.479Z,36.13
2018-02-12T04:18:33.453Z,35.85
2018-02-12T04:19:33.424Z,36.04
2018-02-12T04:20:33.399Z,35.75
2018-02-12T04:21:33.372Z,35.75
2018-02-12T04:22:33.346Z,35.75
2018-02-12T04:23:33.318Z,35.65
2018-02-12T04:24:33.291Z,35.56
2018-02-12T04:25:33.264Z,35.46
2018-02-12T04:26:33.236Z,35.56
2018-02-12T04:27:33.210Z,35.56
2018-02-12T04:28:33.183Z,35.65
2018-02-12T04:29:33.157Z,35.46
2018-02-12T04:30:33.129Z,35.56
2018-02-12T04:31:33.101Z,35.65
2018-02-12T04:32:33.076Z,35.56
2018-02-12T04:33:33.049Z,35.36
2018-02-12T04:34:33.021Z,35.56
2018-02-12T04:35:32.993Z,35.65
2018-02-12T04:36:32.968Z,35.56
2018-02-12T04:37:32.941Z,35.56
2018-02-12T04:38:32.913Z,35.56
2018-02-12T04:39:32.887Z,35.46
2018-02-12T04:40:32.861Z,35.56
2018-02-12T04:41:32.834Z,35.46
2018-02-12T04:42:32.808Z,35.36
2018-02-12T04:43:32.780Z,35.46
2018-02-12T04:44:32.753Z,35.56
2018-02-12T04:45:32.727Z,35.56
2018-02-12T04:46:32.701Z,35.75
2018-02-12T04:47:32.673Z,35.85
2018-02-12T04:48:32.647Z,35.85
2018-02-12T04:49:32.620Z,35.85
2018-02-12T04:50:32.596Z,36.13
2018-02-12T04:51:32.565Z,36.04
2018-02-12T04:52:32.538Z,35.94
2018-02-12T04:53:32.513Z,35.94
2018-02-12T04:54:32.487Z,36.13
2018-02-12T04:55:32.459Z,36.23
2018-02-12T04:56:32.432Z,36.13
2018-02-12T04:57:32.408Z,36.13
2018-02-12T04:58:32.381Z,36.13
2018-02-12T04:59:32.353Z,36.52
2018-02-12T05:00:32.328Z,36.71
2018-02-12T05:01:32.301Z,36.33
2018-02-12T05:02:32.275Z,36.23
2018-02-12T05:03:32.248Z,36.33
2018-02-12T05:04:32.228Z,36.91
2018-02-12T05:05:32.196Z,36.33
2018-02-12T05:06:32.168Z,36.52
2018-02-12T05:07:32.143Z,36.81
2018-02-12T05:08:32.116Z,37.10
2018-02-12T05:09:32.091Z,36.91
2018-02-12T05:10:32.064Z,37.01
2018-02-12T05:11:32.038Z,36.43
2018-02-12T05:12:32.010Z,36.91
2018-02-12T05:13:31.985Z,37.10
2018-02-12T05:14:31.959Z,36.91
2018-02-12T05:15:31.930Z,36.91
2018-02-12T05:16:31.906Z,36.33
2018-02-12T05:17:31.880Z,37.19
2018-02-12T05:18:31.853Z,37.10
2018-02-12T05:19:31.826Z,37.01
2018-02-12T05:20:31.800Z,37.39
2018-02-12T05:21:31.774Z,37.29
2018-02-12T05:22:31.765Z,37.19
2018-02-12T05:23:31.720Z,37.19
2018-02-12T05:24:31.693Z,37.31
2018-02-12T05:25:31.668Z,37.39
2018-02-12T05:26:31.641Z,37.48
2018-02-12T05:27:31.615Z,37.60
2018-02-12T05:28:31.588Z,37.77
2018-02-12T05:29:31.563Z,37.58
2018-02-12T05:30:31.537Z,37.41
2018-02-12T05:31:31.510Z,37.70
2018-02-12T05:32:31.506Z,37.89
2018-02-12T05:33:31.462Z,37.89
2018-02-12T05:34:31.431Z,37.58
2018-02-12T05:35:31.404Z,37.50
2018-02-12T05:36:31.378Z,37.41
2018-02-12T05:37:31.354Z,37.79
2018-02-12T05:38:31.327Z,38.08
2018-02-12T05:39:31.300Z,38.28
2018-02-12T05:40:31.274Z,37.98
2018-02-12T05:41:31.246Z,38.08
2018-02-12T05:42:31.222Z,38.37
2018-02-12T05:43:31.194Z,38.08
2018-02-12T05:44:31.169Z,38.08
2018-02-12T05:45:31.142Z,38.28
2018-02-12T05:46:31.116Z,38.18
2018-02-12T05:47:31.091Z,38.08
2018-02-12T05:48:31.065Z,37.98
2018-02-12T05:49:31.037Z,37.89
2018-02-12T05:50:31.016Z,37.96
2018-02-12T05:51:30.986Z,37.87
2018-02-12T05:52:30.960Z,37.87
2018-02-12T05:53:30.934Z,38.08
2018-02-12T05:54:30.914Z,37.96
2018-02-12T05:55:30.880Z,37.79
2018-02-12T05:56:30.855Z,37.79
2018-02-12T05:57:30.829Z,37.98
2018-02-12T05:58:30.804Z,37.87
2018-02-12T05:59:30.776Z,37.89
2018-02-12T06:00:30.752Z,38.45
2018-02-12T06:01:30.725Z,38.08
2018-02-12T06:02:30.700Z,38.37
2018-02-12T06:03:30.673Z,38.56
2018-02-12T06:04:30.647Z,38.45
2018-02-12T06:05:30.621Z,38.66
2018-02-12T06:06:30.595Z,38.66
2018-02-12T06:07:30.568Z,38.95
2018-02-12T06:08:30.541Z,38.93
2018-02-12T06:09:30.516Z,39.03
2018-02-12T06:10:30.490Z,39.04
2018-02-12T06:11:30.464Z,39.12
2018-02-12T06:12:30.437Z,39.22
2018-02-12T06:13:30.412Z,39.03
2018-02-12T06:14:30.384Z,39.99
2018-02-12T06:15:30.360Z,39.79
2018-02-12T06:16:30.333Z,39.82
2018-02-12T06:17:30.307Z,39.61
2018-02-12T06:18:30.280Z,39.79
2018-02-12T06:19:30.253Z,39.62
2018-02-12T06:20:30.229Z,39.61
2018-02-12T06:21:30.203Z,39.70
2018-02-12T06:22:30.176Z,39.72
2018-02-12T06:23:30.150Z,39.79
2018-02-12T06:24:30.122Z,39.79
2018-02-12T06:25:30.098Z,39.79
2018-02-12T06:26:30.073Z,39.89
2018-02-12T06:27:30.046Z,39.99
2018-02-12T06:28:30.020Z,39.89
2018-02-12T06:29:29.993Z,39.79
2018-02-12T06:30:29.968Z,39.79
2018-02-12T06:31:29.941Z,39.41
2018-02-12T06:32:29.915Z,39.79
2018-02-12T06:33:29.889Z,39.79
2018-02-12T06:34:29.863Z,39.79
2018-02-12T06:35:29.835Z,39.79
2018-02-12T06:36:29.809Z,39.89
2018-02-12T06:37:29.785Z,39.31
2018-02-12T06:38:29.759Z,39.61
2018-02-12T06:39:29.731Z,39.79
2018-02-12T06:40:29.706Z,39.79
2018-02-12T06:41:29.680Z,39.70
2018-02-12T06:42:29.655Z,39.70
2018-02-12T06:43:29.627Z,39.70
2018-02-12T06:44:29.601Z,39.89
2018-02-12T06:45:29.575Z,39.61
2018-02-12T06:46:29.549Z,39.70
2018-02-12T06:47:29.522Z,40.09
2018-02-12T06:48:29.498Z,40.28
2018-02-12T06:49:29.470Z,39.99
2018-02-12T06:50:29.445Z,39.99
2018-02-12T06:51:29.418Z,40.09
2018-02-12T06:52:29.392Z,39.99
2018-02-12T06:53:29.365Z,40.19
2018-02-12T06:54:29.338Z,40.19
2018-02-12T06:55:29.315Z,40.28
2018-02-12T06:56:29.286Z,40.28
2018-02-12T06:57:29.261Z,39.89
2018-02-12T06:58:29.234Z,40.37
2018-02-12T06:59:29.207Z,39.89
2018-02-12T07:00:29.183Z,39.89
2018-02-12T07:01:29.156Z,40.28
2018-02-12T07:02:29.130Z,39.99
2018-02-12T07:03:29.103Z,39.89
2018-02-12T07:04:29.076Z,39.89
2018-02-12T07:05:29.051Z,40.57
2018-02-12T07:06:29.025Z,40.09
2018-02-12T07:07:28.998Z,39.89
2018-02-12T07:08:28.971Z,40.28
2018-02-12T07:09:28.946Z,40.09
2018-02-12T07:10:28.919Z,40.19
2018-02-12T07:11:28.892Z,40.28
2018-02-12T07:12:28.867Z,40.19
2018-02-12T07:13:28.844Z,39.99
2018-02-12T07:14:28.815Z,40.19
2018-02-12T07:15:28.787Z,40.09
2018-02-12T07:16:28.762Z,39.99
2018-02-12T07:17:28.738Z,39.99
2018-02-12T07:18:28.709Z,39.99
2018-02-12T07:19:28.686Z,40.19
2018-02-12T07:20:28.661Z,39.89
2018-02-12T07:21:28.632Z,40.09
2018-02-12T07:22:28.607Z,40.09
2018-02-12T07:23:28.579Z,40.19
2018-02-12T07:24:28.552Z,40.09
2018-02-12T07:25:28.527Z,40.19
2018-02-12T07:26:28.500Z,40.19
2018-02-12T07:27:28.474Z,40.37
2018-02-12T07:28:28.448Z,40.28
2018-02-12T07:29:28.422Z,40.19
2018-02-12T07:30:28.396Z,40.09
2018-02-12T07:31:28.368Z,40.09
2018-02-12T07:32:28.343Z,39.99
2018-02-12T07:33:28.316Z,40.19
2018-02-12T07:34:28.291Z,40.28
2018-02-12T07:35:28.264Z,39.89
2018-02-12T07:36:28.239Z,40.19
2018-02-12T07:37:28.212Z,39.70
2018-02-12T07:38:28.186Z,39.89
2018-02-12T07:39:28.159Z,39.79
2018-02-12T07:40:28.133Z,39.70
2018-02-12T07:41:28.108Z,40.09
2018-02-12T07:42:28.081Z,39.31
2018-02-12T07:43:28.055Z,39.82
2018-02-12T07:44:28.029Z,39.61
2018-02-12T07:45:28.002Z,39.82
2018-02-12T07:46:27.977Z,39.91
2018-02-12T07:47:27.949Z,39.79
2018-02-12T07:48:27.925Z,39.53
2018-02-12T07:49:27.898Z,39.14
2018-02-12T07:50:27.871Z,39.03
2018-02-12T07:51:27.844Z,39.34
2018-02-12T07:52:27.818Z,39.14
2018-02-12T07:53:27.792Z,39.14
2018-02-12T07:54:27.766Z,39.24
2018-02-12T07:55:27.739Z,38.95
2018-02-12T07:56:27.713Z,38.66
2018-02-12T07:57:27.687Z,38.66
2018-02-12T07:58:27.661Z,38.76
2018-02-12T07:59:27.634Z,38.76
2018-02-12T08:00:27.608Z,38.66
2018-02-12T08:01:27.581Z,38.76
2018-02-12T08:02:27.556Z,38.78
2018-02-12T08:03:27.528Z,38.76
2018-02-12T08:04:27.547Z,38.37
2018-02-12T08:05:27.477Z,38.46
2018-02-12T08:06:27.451Z,38.56
2018-02-12T08:07:27.423Z,38.66
2018-02-12T08:08:27.396Z,38.29
2018-02-12T08:09:27.371Z,38.29
2018-02-12T08:10:27.344Z,38.29
2018-02-12T08:11:27.318Z,38.29
2018-02-12T08:12:27.298Z,38.29
2018-02-12T08:13:27.265Z,38.39
2018-02-12T08:14:27.239Z,37.91
2018-02-12T08:15:27.212Z,38.01
2018-02-12T08:16:27.186Z,37.91
2018-02-12T08:17:27.161Z,38.01
2018-02-12T08:18:27.133Z,38.10
2018-02-12T08:19:27.107Z,38.10
2018-02-12T08:20:27.082Z,38.29
2018-02-12T08:21:27.055Z,38.20
2018-02-12T08:22:27.030Z,38.20
2018-02-12T08:23:27.001Z,38.02
2018-02-12T08:24:26.975Z,38.02
2018-02-12T08:25:26.951Z,37.81
2018-02-12T08:26:26.924Z,37.83
2018-02-12T08:27:26.897Z,37.83
2018-02-12T08:28:26.871Z,37.91
2018-02-12T08:29:26.845Z,37.73
2018-02-12T08:30:26.818Z,37.73
2018-02-12T08:31:26.791Z,37.71
2018-02-12T08:32:26.765Z,37.73
2018-02-12T08:33:26.740Z,37.73
2018-02-12T08:34:26.713Z,37.35
2018-02-12T08:35:26.700Z,37.45
2018-02-12T08:36:26.661Z,37.35
2018-02-12T08:37:26.639Z,37.45
2018-02-12T08:38:26.608Z,37.54
2018-02-12T08:39:26.581Z,37.63
2018-02-12T08:40:26.556Z,37.62
2018-02-12T08:41:26.530Z,37.43
2018-02-12T08:42:26.504Z,37.63
2018-02-12T08:43:26.476Z,37.63
2018-02-12T08:44:26.450Z,37.63
2018-02-12T08:45:26.425Z,37.73
2018-02-12T08:46:26.398Z,37.43
2018-02-12T08:47:26.371Z,37.45
2018-02-12T08:48:26.346Z,37.35
2018-02-12T08:49:26.320Z,37.35
2018-02-12T08:50:26.296Z,37.45
2018-02-12T08:51:26.267Z,37.25
2018-02-12T08:52:26.241Z,37.45
2018-02-12T08:53:26.216Z,37.52
2018-02-12T08:54:26.189Z,37.33
2018-02-12T08:55:26.162Z,37.35
2018-02-12T08:56:26.136Z,37.33
2018-02-12T08:57:26.110Z,37.45
2018-02-12T08:58:26.084Z,37.35
2018-02-12T08:59:26.058Z,37.25
2018-02-12T09:00:26.032Z,36.96
2018-02-12T09:01:26.006Z,36.67
2018-02-12T09:02:25.981Z,36.96
2018-02-12T09:03:25.953Z,37.63
2018-02-12T09:04:25.930Z,37.06
2018-02-12T09:05:25.901Z,37.08
2018-02-12T09:06:25.875Z,36.48
2018-02-12T09:07:25.847Z,36.96
2018-02-12T09:08:25.822Z,36.88
2018-02-12T09:09:25.798Z,36.69
2018-02-12T09:10:25.771Z,36.79
2018-02-12T09:11:25.745Z,36.88
2018-02-12T09:12:25.719Z,36.69
2018-02-12T09:13:25.693Z,36.59
2018-02-12T09:14:25.668Z,36.30
2018-02-12T09:15:25.641Z,36.30
2018-02-12T09:16:25.614Z,36.01
2018-02-12T09:17:25.590Z,36.11
2018-02-12T09:18:25.564Z,36.01
2018-02-12T09:19:25.538Z,36.01
2018-02-12T09:20:25.512Z,36.22
2018-02-12T09:21:25.487Z,35.74
2018-02-12T09:22:25.460Z,35.84
2018-02-12T09:23:25.435Z,35.64
2018-02-12T09:24:25.409Z,35.74
2018-02-12T09:25:25.385Z,35.74
2018-02-12T09:26:25.359Z,35.74
2018-02-12T09:27:25.332Z,35.84
2018-02-12T09:28:25.307Z,35.55
2018-02-12T09:29:25.281Z,35.64
2018-02-12T09:30:25.255Z,35.74
2018-02-12T09:31:25.230Z,35.36
2018-02-12T09:32:25.206Z,35.36
2018-02-12T09:33:25.179Z,35.36
2018-02-12T09:34:25.155Z,35.36
2018-02-12T09:35:25.126Z,35.36
2018-02-12T09:36:25.108Z,35.45
2018-02-12T09:37:25.077Z,35.37
2018-02-12T09:38:25.053Z,35.16
2018-02-12T09:39:25.025Z,34.99
2018-02-12T09:40:25.000Z,35.18
2018-02-12T09:41:24.974Z,34.99
2018-02-12T09:42:24.949Z,35.08
2018-02-12T09:43:24.924Z,35.08
2018-02-12T09:44:24.898Z,35.08
2018-02-12T09:45:24.873Z,34.99
2018-02-12T09:46:24.848Z,34.89
2018-02-12T09:47:24.822Z,34.99
2018-02-12T09:48:24.797Z,34.99
2018-02-12T09:49:24.772Z,34.99
2018-02-12T09:50:24.746Z,34.89
2018-02-12T09:51:24.720Z,34.79
2018-02-12T09:52:24.697Z,34.79
2018-02-12T09:53:24.670Z,34.70
2018-02-12T09:54:24.645Z,34.70
2018-02-12T09:55:24.620Z,34.60
2018-02-12T09:56:24.594Z,34.60
2018-02-12T09:57:24.571Z,34.60
2018-02-12T09:58:24.546Z,34.89
2018-02-12T09:59:24.520Z,34.70
2018-02-12T10:00:24.495Z,34.60
2018-02-12T10:01:24.469Z,34.60
2018-02-12T10:02:24.444Z,34.70
2018-02-12T10:03:24.418Z,34.41
2018-02-12T10:04:24.395Z,34.41
2018-02-12T10:05:24.373Z,34.41
2018-02-12T10:06:24.345Z,34.50
2018-02-12T10:07:24.319Z,34.41
2018-02-12T10:08:24.294Z,34.60
2018-02-12T10:09:24.269Z,34.31
2018-02-12T10:10:24.246Z,34.41
2018-02-12T10:11:24.219Z,34.41
2018-02-12T10:12:24.194Z,34.23
2018-02-12T10:13:24.171Z,34.33
2018-02-12T10:14:24.144Z,34.23
2018-02-12T10:15:24.120Z,34.23
2018-02-12T10:16:24.095Z,34.12
2018-02-12T10:17:24.070Z,34.60
2018-02-12T10:18:24.045Z,34.31
2018-02-12T10:19:24.020Z,34.23
2018-02-12T10:20:23.998Z,33.84
2018-02-12T10:21:23.972Z,34.23
2018-02-12T10:22:23.946Z,34.33
2018-02-12T10:23:23.922Z,34.04
2018-02-12T10:24:23.897Z,34.13
2018-02-12T10:25:23.872Z,34.23
2018-02-12T10:26:23.848Z,34.23
2018-02-12T10:27:23.821Z,33.94
2018-02-12T10:28:23.799Z,33.94
2018-02-12T10:29:23.773Z,33.84
2018-02-12T10:30:23.749Z,33.55
2018-02-12T10:31:23.724Z,33.65
2018-02-12T10:32:23.698Z,33.65
2018-02-12T10:33:23.675Z,33.75
2018-02-12T10:34:23.651Z,33.65
2018-02-12T10:35:23.625Z,33.75
2018-02-12T10:36:23.601Z,33.55
2018-02-12T10:37:23.578Z,33.55
2018-02-12T10:38:23.552Z,33.45
2018-02-12T10:39:23.528Z,33.75
2018-02-12T10:40:23.504Z,33.75
2018-02-12T10:41:23.479Z,33.55
2018-02-12T10:42:23.454Z,33.26
2018-02-12T10:43:23.430Z,33.36
2018-02-12T10:44:23.405Z,33.45
2018-02-12T10:45:23.382Z,33.09
2018-02-12T10:46:23.358Z,33.28
2018-02-12T10:47:23.333Z,33.17
2018-02-12T10:48:23.308Z,33.45
2018-02-12T10:49:23.284Z,33.18
2018-02-12T10:50:23.260Z,33.47
2018-02-12T10:51:23.235Z,33.26
2018-02-12T10:52:23.212Z,32.99
2018-02-12T10:53:23.188Z,32.99
2018-02-12T10:54:23.164Z,32.89
2018-02-12T10:55:23.138Z,32.99
2018-02-12T10:56:23.114Z,32.99
2018-02-12T10:57:23.091Z,32.51
2018-02-12T10:58:23.068Z,32.51
2018-02-12T10:59:23.043Z,32.51
2018-02-12T11:00:23.017Z,32.99
2018-02-12T11:01:22.994Z,32.51
2018-02-12T11:02:22.971Z,32.51
2018-02-12T11:03:22.945Z,32.70
2018-02-12T11:04:22.922Z,32.70
2018-02-12T11:05:22.898Z,32.99
2018-02-12T11:06:22.873Z,33.09
2018-02-12T11:07:22.850Z,32.87
2018-02-12T11:08:22.852Z,33.18
2018-02-12T11:09:22.802Z,32.79
2018-02-12T11:10:22.778Z,32.99
2018-02-12T11:11:22.759Z,32.89
2018-02-12T11:12:22.729Z,32.51
2018-02-12T11:13:22.706Z,32.70
2018-02-12T11:14:22.682Z,32.60
2018-02-12T11:15:22.658Z,32.60
2018-02-12T11:16:22.634Z,32.60
2018-02-12T11:17:22.609Z,32.51
2018-02-12T11:18:22.586Z,32.79
2018-02-12T11:19:22.561Z,32.78
2018-02-12T11:20:22.538Z,33.07
2018-02-12T11:21:22.514Z,33.36
2018-02-12T11:22:22.493Z,33.17
2018-02-12T11:23:22.465Z,32.99
2018-02-12T11:24:22.443Z,32.70
2018-02-12T11:25:22.420Z,32.99
2018-02-12T11:26:22.398Z,32.79
2018-02-12T11:27:22.374Z,32.97
2018-02-12T11:28:22.351Z,33.07
2018-02-12T11:29:22.328Z,32.97
2018-02-12T11:30:22.306Z,33.09
2018-02-12T11:31:22.285Z,32.87
2018-02-12T11:32:22.261Z,32.79
2018-02-12T11:33:22.238Z,32.70
2018-02-12T11:34:22.216Z,32.79
2018-02-12T11:35:22.192Z,33.07
2018-02-12T11:36:22.169Z,32.78
2018-02-12T11:37:22.152Z,32.87
2018-02-12T11:38:22.124Z,33.26
2018-02-12T11:39:22.102Z,33.36
2018-02-12T11:40:22.078Z,33.36
2018-02-12T11:41:22.057Z,32.97
2018-02-12T11:42:22.037Z,32.97
2018-02-12T11:43:22.011Z,33.07
2018-02-12T11:44:21.988Z,33.45
2018-02-12T11:45:21.966Z,33.26
2018-02-12T11:46:21.944Z,33.26
2018-02-12T11:47:21.922Z,33.07
2018-02-12T11:48:21.898Z,33.45
2018-02-12T11:49:21.876Z,33.26
2018-02-12T11:50:21.852Z,33.36
2018-02-12T11:51:21.830Z,33.45
2018-02-12T11:52:21.807Z,33.55
2018-02-12T11:53:21.785Z,33.36
2018-02-12T11:54:21.762Z,33.36
2018-02-12T11:55:21.738Z,33.26
2018-02-12T11:56:21.716Z,33.25
2018-02-12T11:57:21.693Z,33.45
2018-02-12T11:58:21.669Z,33.05
2018-02-12T11:59:21.648Z,33.63
2018-02-12T12:00:21.624Z,33.25
2018-02-12T12:01:21.600Z,33.15
2018-02-12T12:02:21.582Z,33.05
2018-02-12T12:03:21.556Z,33.15
2018-02-12T12:04:21.531Z,33.55
2018-02-12T12:05:21.515Z,33.15
2018-02-12T12:06:21.486Z,33.92
2018-02-12T12:07:21.463Z,33.05
2018-02-12T12:08:21.440Z,33.63
2018-02-12T12:09:21.418Z,33.63
2018-02-12T12:10:21.395Z,33.34
2018-02-12T12:11:21.374Z,33.73
2018-02-12T12:12:21.349Z,33.73
2018-02-12T12:13:21.326Z,33.63
2018-02-12T12:14:21.304Z,33.15
2018-02-12T12:15:21.279Z,33.07
2018-02-12T12:16:21.256Z,33.07
2018-02-12T12:17:21.234Z,32.87
2018-02-12T12:18:21.210Z,33.17
2018-02-12T12:19:21.187Z,32.87
2018-02-12T12:20:21.167Z,32.78
2018-02-12T12:21:21.146Z,32.49
2018-02-12T12:22:21.118Z,32.68
2018-02-12T12:23:21.094Z,32.97
2018-02-12T12:24:21.072Z,33.07
2018-02-12T12:25:21.050Z,32.97
2018-02-12T12:26:21.028Z,32.78
2018-02-12T12:27:21.004Z,32.86
2018-02-12T12:28:20.982Z,33.25
2018-02-12T12:29:20.958Z,33.25
2018-02-12T12:30:20.935Z,33.44
2018-02-12T12:31:20.912Z,32.97
2018-02-12T12:32:20.890Z,32.78
2018-02-12T12:33:20.867Z,32.68
2018-02-12T12:34:20.845Z,32.68
2018-02-12T12:35:20.822Z,32.68
2018-02-12T12:36:20.800Z,32.78
2018-02-12T12:37:20.777Z,32.68
2018-02-12T12:38:20.754Z,32.49
2018-02-12T12:39:20.731Z,32.59
2018-02-12T12:40:20.708Z,32.49
2018-02-12T12:41:20.686Z,32.78
2018-02-12T12:42:20.664Z,32.68
2018-02-12T12:43:20.640Z,32.68
2018-02-12T12:44:20.619Z,32.78
2018-02-12T12:45:20.595Z,32.49
2018-02-12T12:46:20.574Z,32.96
2018-02-12T12:47:22.172Z,32.97
2018-02-12T12:48:20.526Z,32.86
2018-02-12T12:49:20.504Z,32.96
2018-02-12T12:50:20.483Z,32.96
2018-02-12T12:51:20.459Z,32.96
2018-02-12T12:52:20.437Z,33.34